createdAt,value
2018-09-29T00:00:18.955Z,22.00
2018-09-29T00:02:47.365Z,22.00
2018-09-29T00:05:15.741Z,22.00
2018-09-29T00:07:44.074Z,21.90
2018-09-29T00:10:12.453Z,21.90
2018-09-29T00:12:40.751Z,21.90
2018-09-29T00:15:09.326Z,22.00
2018-09-29T00:17:37.859Z,22.00
2018-09-29T00:20:06.527Z,21.90
2018-09-29T00:22:34.851Z,21.90
2018-09-29T00:25:03.238Z,21.90
2018-09-29T00:27:31.554Z,21.90
2018-09-29T00:30:00.010Z,21.90
2018-09-29T00:32:28.528Z,21.80
2018-09-29T00:34:56.876Z,21.80
2018-09-29T00:37:25.155Z,21.80
2018-09-29T00:39:53.489Z,21.90
2018-09-29T00:42:21.804Z,21.80
2018-09-29T00:44:50.266Z,21.80
2018-09-29T00:47:18.582Z,21.80
2018-09-29T00:49:46.906Z,21.80
2018-09-29T00:52:15.203Z,21.80
2018-09-29T00:54:43.542Z,21.80
2018-09-29T00:57:11.983Z,21.80
2018-09-29T00:59:40.271Z,21.70
2018-09-29T01:02:08.802Z,21.80
2018-09-29T01:04:37.359Z,21.80
2018-09-29T01:07:05.834Z,21.80
2018-09-29T01:09:34.464Z,21.80
2018-09-29T01:12:02.835Z,21.80
2018-09-29T01:14:31.139Z,21.70
2018-09-29T01:16:59.531Z,21.70
2018-09-29T01:19:27.925Z,21.80
2018-09-29T01:21:56.373Z,21.70
2018-09-29T01:24:24.728Z,21.80
2018-09-29T01:26:53.035Z,21.70
2018-09-29T01:29:21.341Z,21.70
2018-09-29T01:31:49.867Z,21.70
2018-09-29T01:34:18.379Z,21.60
2018-09-29T01:36:46.695Z,21.60
2018-09-29T01:39:15.089Z,21.60
2018-09-29T01:41:43.371Z,21.60
2018-09-29T01:44:11.817Z,21.60
2018-09-29T01:46:40.127Z,21.60
2018-09-29T01:49:08.437Z,21.60
2018-09-29T01:51:36.756Z,21.60
2018-09-29T01:54:05.101Z,21.60
2018-09-29T01:56:33.443Z,21.60
2018-09-29T01:59:01.847Z,21.60
2018-09-29T02:01:30.235Z,21.60
2018-09-29T02:03:58.611Z,21.50
2018-09-29T02:06:26.987Z,21.50
2018-09-29T02:08:55.703Z,21.50
2018-09-29T02:11:24.032Z,21.50
2018-09-29T02:13:52.361Z,21.50
2018-09-29T02:16:20.811Z,21.50
2018-09-29T02:18:49.241Z,21.50
2018-09-29T02:21:17.664Z,21.50
2018-09-29T02:23:46.025Z,21.50
2018-09-29T02:26:14.385Z,21.40
2018-09-29T02:28:42.741Z,21.40
2018-09-29T02:31:11.064Z,21.50
2018-09-29T02:33:39.371Z,21.40
2018-09-29T02:36:14.390Z,21.40
2018-09-29T02:38:42.682Z,21.40
2018-09-29T02:41:10.981Z,21.40
2018-09-29T02:43:39.339Z,21.40
2018-09-29T02:46:07.807Z,21.40
2018-09-29T02:48:36.095Z,21.40
2018-09-29T02:51:04.552Z,21.30
2018-09-29T02:53:32.877Z,21.30
2018-09-29T02:56:01.276Z,21.30
2018-09-29T02:58:29.571Z,21.30
2018-09-29T03:00:57.880Z,21.30
2018-09-29T03:03:26.183Z,21.30
2018-09-29T03:05:54.461Z,21.30
2018-09-29T03:08:22.714Z,21.40
2018-09-29T03:10:51.047Z,21.30
2018-09-29T03:13:19.513Z,21.30
2018-09-29T03:15:48.012Z,21.30
2018-09-29T03:18:16.307Z,21.30
2018-09-29T03:20:44.670Z,21.30
2018-09-29T03:23:13.047Z,21.30
2018-09-29T03:25:41.363Z,21.20
2018-09-29T03:28:09.835Z,21.20
2018-09-29T03:30:38.145Z,21.20
2018-09-29T03:33:06.642Z,21.20
2018-09-29T03:35:34.951Z,21.20
2018-09-29T03:38:03.291Z,21.20
2018-09-29T03:40:31.713Z,21.10
2018-09-29T03:43:00.007Z,21.20
2018-09-29T03:45:28.399Z,21.20
2018-09-29T03:47:57.147Z,21.20
2018-09-29T03:50:25.484Z,21.20
2018-09-29T03:52:53.956Z,21.20
2018-09-29T03:55:22.296Z,21.10
2018-09-29T03:57:50.664Z,21.10
2018-09-29T04:00:18.987Z,21.20
2018-09-29T04:02:47.369Z,21.10
2018-09-29T04:05:15.764Z,21.00
2018-09-29T04:07:44.044Z,20.80
2018-09-29T04:10:12.464Z,20.40
2018-09-29T04:12:40.844Z,20.10
2018-09-29T04:15:09.465Z,19.70
2018-09-29T04:17:37.828Z,19.40
2018-09-29T04:20:06.223Z,19.00
2018-09-29T04:22:34.493Z,18.70
2018-09-29T04:25:02.831Z,18.50
2018-09-29T04:27:31.187Z,18.30
2018-09-29T04:29:59.720Z,18.10
2018-09-29T04:32:28.109Z,17.90
2018-09-29T04:34:56.403Z,17.70
2018-09-29T04:37:24.718Z,17.50
2018-09-29T04:39:53.060Z,17.30
2018-09-29T04:42:21.335Z,17.20
2018-09-29T04:44:49.614Z,17.00
2018-09-29T04:47:17.953Z,16.90
2018-09-29T04:49:46.250Z,16.90
2018-09-29T04:52:14.583Z,16.80
2018-09-29T04:54:42.881Z,16.80
2018-09-29T04:57:11.272Z,16.70
2018-09-29T04:59:39.553Z,16.70
2018-09-29T05:02:07.926Z,16.60
2018-09-29T05:04:36.255Z,16.50
2018-09-29T05:07:04.579Z,16.50
2018-09-29T05:09:33.491Z,16.50
2018-09-29T05:12:01.746Z,16.50
2018-09-29T05:14:30.023Z,16.60
2018-09-29T05:16:58.387Z,16.70
2018-09-29T05:19:26.727Z,16.90
2018-09-29T05:21:55.108Z,17.00
2018-09-29T05:24:23.436Z,17.10
2018-09-29T05:26:51.815Z,17.20
2018-09-29T05:29:20.140Z,17.40
2018-09-29T05:31:48.546Z,17.50
2018-09-29T05:34:16.846Z,17.60
2018-09-29T05:36:45.184Z,17.70
2018-09-29T05:39:13.599Z,17.80
2018-09-29T05:41:41.938Z,17.90
2018-09-29T05:44:10.259Z,17.90
2018-09-29T05:46:38.592Z,17.90
2018-09-29T05:49:07.129Z,17.90
2018-09-29T05:51:35.450Z,18.00
2018-09-29T05:54:03.875Z,18.00
2018-09-29T05:56:32.141Z,18.00
2018-09-29T05:59:00.483Z,18.10
2018-09-29T06:01:29.266Z,18.20
2018-09-29T06:03:57.821Z,18.20
2018-09-29T06:06:26.236Z,18.20
2018-09-29T06:08:55.887Z,18.30
2018-09-29T06:11:24.267Z,18.30
2018-09-29T06:13:52.667Z,18.30
2018-09-29T06:16:21.003Z,18.30
2018-09-29T06:18:49.263Z,18.30
2018-09-29T06:21:17.574Z,18.30
2018-09-29T06:23:45.880Z,18.40
2018-09-29T06:26:14.173Z,18.30
2018-09-29T06:28:42.449Z,18.30
2018-09-29T06:31:10.752Z,18.30
2018-09-29T06:33:39.074Z,18.30
2018-09-29T06:36:07.467Z,18.30
2018-09-29T06:38:35.722Z,18.30
2018-09-29T06:41:04.031Z,18.30
2018-09-29T06:43:32.340Z,18.40
2018-09-29T06:46:00.653Z,18.40
2018-09-29T06:48:28.938Z,18.40
2018-09-29T06:50:57.390Z,18.50
2018-09-29T06:53:25.687Z,18.50
2018-09-29T06:55:54.163Z,18.50
2018-09-29T06:58:22.491Z,18.50
2018-09-29T07:00:50.831Z,18.60
2018-09-29T07:03:19.135Z,18.60
2018-09-29T07:05:47.514Z,18.60
2018-09-29T07:08:15.846Z,18.70
2018-09-29T07:10:44.143Z,18.70
2018-09-29T07:13:12.443Z,18.70
2018-09-29T07:15:40.757Z,18.80
2018-09-29T07:18:09.152Z,18.90
2018-09-29T07:20:37.832Z,18.90
2018-09-29T07:23:06.131Z,19.00
2018-09-29T07:25:34.488Z,19.10
2018-09-29T07:28:02.725Z,19.10
2018-09-29T07:30:31.116Z,19.20
2018-09-29T07:32:59.487Z,19.30
2018-09-29T07:35:27.850Z,19.30
2018-09-29T07:37:56.104Z,19.40
2018-09-29T07:40:24.367Z,19.50
2018-09-29T07:42:52.685Z,19.60
2018-09-29T07:45:20.941Z,19.60
2018-09-29T07:47:49.219Z,19.70
2018-09-29T07:50:17.487Z,19.90
2018-09-29T07:52:45.791Z,20.00
2018-09-29T07:55:14.103Z,20.10
2018-09-29T07:57:42.450Z,20.30
2018-09-29T08:00:10.754Z,20.40
2018-09-29T08:02:39.076Z,20.60
2018-09-29T08:05:07.379Z,20.80
2018-09-29T08:07:35.926Z,21.10
2018-09-29T08:10:04.264Z,21.40
2018-09-29T08:12:32.661Z,21.80
2018-09-29T08:15:00.953Z,22.20
2018-09-29T08:17:29.333Z,22.60
2018-09-29T08:19:57.733Z,23.00
2018-09-29T08:22:26.231Z,23.40
2018-09-29T08:24:54.583Z,23.90
2018-09-29T08:27:22.916Z,24.30
2018-09-29T08:29:51.200Z,24.70
2018-09-29T08:32:19.701Z,25.10
2018-09-29T08:34:47.947Z,25.50
2018-09-29T08:37:16.220Z,25.90
2018-09-29T08:39:44.488Z,26.30
2018-09-29T08:42:12.803Z,26.70
2018-09-29T08:44:41.415Z,27.10
2018-09-29T08:47:10.001Z,27.50
2018-09-29T08:49:38.300Z,27.80
2018-09-29T08:52:06.599Z,28.20
2018-09-29T08:54:34.923Z,28.50
2018-09-29T08:57:03.275Z,28.80
2018-09-29T08:59:31.712Z,29.10
2018-09-29T09:02:00.329Z,29.40
2018-09-29T09:04:28.919Z,29.60
2018-09-29T09:06:57.783Z,29.90
2018-09-29T09:09:26.378Z,30.10
2018-09-29T09:11:54.679Z,30.50
2018-09-29T09:14:23.069Z,30.70
2018-09-29T09:16:51.437Z,31.00
2018-09-29T09:19:19.978Z,31.20
2018-09-29T09:21:48.570Z,31.40
2018-09-29T09:24:17.588Z,31.60
2018-09-29T09:26:45.923Z,31.80
2018-09-29T09:29:14.316Z,31.90
2018-09-29T09:31:42.728Z,32.10
2018-09-29T09:34:11.159Z,32.30
2018-09-29T09:36:39.728Z,32.50
2018-09-29T09:39:10.291Z,32.70
2018-09-29T09:41:38.639Z,33.00
2018-09-29T09:44:07.422Z,33.30
2018-09-29T09:46:35.733Z,33.50
2018-09-29T09:49:10.591Z,33.80
2018-09-29T09:51:38.942Z,34.00
2018-09-29T09:54:07.294Z,34.30
2018-09-29T09:56:35.703Z,34.50
2018-09-29T09:59:04.290Z,34.70
2018-09-29T10:01:38.898Z,34.90
2018-09-29T10:04:07.560Z,35.10
2018-09-29T10:06:35.993Z,35.30
2018-09-29T10:09:06.355Z,35.60
2018-09-29T10:11:34.864Z,35.80
2018-09-29T10:14:03.457Z,36.00
2018-09-29T10:16:32.152Z,36.30
2018-09-29T10:19:00.644Z,36.50
2018-09-29T10:21:29.001Z,36.70
2018-09-29T10:23:57.719Z,36.80
2018-09-29T10:26:26.059Z,37.00
2018-09-29T10:28:54.380Z,37.10
2018-09-29T10:31:22.686Z,37.30
2018-09-29T10:33:51.002Z,37.40
2018-09-29T10:36:19.387Z,37.70
2018-09-29T10:38:47.675Z,37.80
2018-09-29T10:41:15.994Z,37.90
2018-09-29T10:43:44.308Z,38.00
2018-09-29T10:46:12.595Z,38.10
2018-09-29T10:48:40.927Z,38.20
2018-09-29T10:51:09.301Z,38.30
2018-09-29T10:53:37.596Z,38.40
2018-09-29T10:56:05.907Z,38.50
2018-09-29T10:58:34.200Z,38.60
2018-09-29T11:01:02.617Z,38.80
2018-09-29T11:03:30.983Z,38.90
2018-09-29T11:05:59.348Z,39.00
2018-09-29T11:08:27.622Z,39.20
2018-09-29T11:10:55.969Z,39.20
2018-09-29T11:13:24.269Z,39.30
2018-09-29T11:15:52.600Z,39.40
2018-09-29T11:18:21.147Z,39.50
2018-09-29T11:20:49.584Z,39.60
2018-09-29T11:23:18.960Z,39.70
2018-09-29T11:25:47.283Z,39.70
2018-09-29T11:28:15.717Z,39.80
2018-09-29T11:30:43.946Z,39.70
2018-09-29T11:33:12.270Z,39.70
2018-09-29T11:35:40.613Z,39.70
2018-09-29T11:38:09.015Z,39.70
2018-09-29T11:40:37.401Z,39.60
2018-09-29T11:43:05.878Z,39.50
2018-09-29T11:45:34.215Z,39.40
2018-09-29T11:48:02.609Z,39.20
2018-09-29T11:50:30.975Z,39.00
2018-09-29T11:52:59.448Z,38.90
2018-09-29T11:55:27.846Z,38.60
2018-09-29T11:57:56.160Z,38.40
2018-09-29T12:00:24.598Z,38.20
2018-09-29T12:02:53.111Z,38.00
2018-09-29T12:05:21.565Z,37.70
2018-09-29T12:07:49.919Z,37.50
2018-09-29T12:10:18.239Z,37.20
2018-09-29T12:12:46.866Z,37.00
2018-09-29T12:15:15.390Z,36.80
2018-09-29T12:17:43.773Z,36.50
2018-09-29T12:20:12.138Z,36.20
2018-09-29T12:22:40.567Z,36.10
2018-09-29T12:25:08.919Z,35.80
2018-09-29T12:27:37.238Z,35.60
2018-09-29T12:30:06.367Z,35.50
2018-09-29T12:32:34.827Z,35.20
2018-09-29T12:35:03.222Z,35.00
2018-09-29T12:37:31.649Z,34.80
2018-09-29T12:40:00.135Z,34.60
2018-09-29T12:42:28.635Z,34.30
2018-09-29T12:44:57.068Z,34.10
2018-09-29T12:47:25.430Z,33.80
2018-09-29T12:49:53.698Z,33.50
2018-09-29T12:52:22.008Z,33.30
2018-09-29T12:54:50.320Z,33.00
2018-09-29T12:57:18.655Z,32.80
2018-09-29T12:59:46.917Z,32.60
2018-09-29T13:02:15.217Z,32.40
2018-09-29T13:04:43.531Z,32.20
2018-09-29T13:07:11.844Z,32.00
2018-09-29T13:09:40.130Z,31.90
2018-09-29T13:12:08.500Z,31.80
2018-09-29T13:14:36.780Z,31.60
2018-09-29T13:17:05.348Z,31.50
2018-09-29T13:19:33.776Z,31.50
2018-09-29T13:22:02.188Z,31.50
2018-09-29T13:24:30.541Z,31.50
2018-09-29T13:26:58.990Z,31.50
2018-09-29T13:29:27.483Z,31.50
2018-09-29T13:31:55.823Z,31.50
2018-09-29T13:34:24.322Z,31.60
2018-09-29T13:36:52.662Z,31.70
2018-09-29T13:39:21.075Z,31.80
2018-09-29T13:41:49.527Z,31.80
2018-09-29T13:44:17.936Z,31.90
2018-09-29T13:46:46.300Z,32.10
2018-09-29T13:49:14.636Z,32.20
2018-09-29T13:51:42.976Z,32.30
2018-09-29T13:54:11.301Z,32.50
2018-09-29T13:56:39.723Z,32.70
2018-09-29T13:59:08.081Z,32.80
2018-09-29T14:01:36.453Z,33.00
2018-09-29T14:04:04.984Z,33.20
2018-09-29T14:06:33.573Z,33.40
2018-09-29T14:09:02.146Z,33.50
2018-09-29T14:11:30.518Z,33.70
2018-09-29T14:13:58.873Z,33.80
2018-09-29T14:16:27.289Z,33.90
2018-09-29T14:18:55.586Z,34.00
2018-09-29T14:21:23.941Z,34.10
2018-09-29T14:23:52.246Z,34.20
2018-09-29T14:26:20.667Z,34.30
2018-09-29T14:28:48.971Z,34.50
2018-09-29T14:31:17.338Z,34.50
2018-09-29T14:33:45.699Z,34.60
2018-09-29T14:36:13.992Z,34.70
2018-09-29T14:38:42.284Z,34.80
2018-09-29T14:41:10.547Z,34.90
2018-09-29T14:43:38.907Z,34.90
2018-09-29T14:46:07.743Z,34.90
2018-09-29T14:48:36.065Z,34.90
2018-09-29T14:51:04.397Z,35.00
2018-09-29T14:53:32.738Z,35.00
2018-09-29T14:56:01.089Z,35.00
2018-09-29T14:58:29.394Z,35.10
2018-09-29T15:00:57.667Z,35.10
2018-09-29T15:03:26.022Z,35.20
2018-09-29T15:05:54.336Z,35.20
2018-09-29T15:08:22.680Z,35.20
2018-09-29T15:10:51.140Z,35.20
2018-09-29T15:13:19.482Z,35.10
2018-09-29T15:15:47.777Z,35.10
2018-09-29T15:18:16.148Z,35.00
2018-09-29T15:20:44.530Z,35.00
2018-09-29T15:23:12.832Z,34.80
2018-09-29T15:25:41.129Z,34.70
2018-09-29T15:28:09.737Z,34.50
2018-09-29T15:30:38.175Z,34.40
2018-09-29T15:33:06.688Z,34.10
2018-09-29T15:35:35.010Z,33.90
2018-09-29T15:38:03.311Z,33.60
2018-09-29T15:40:31.599Z,33.30
2018-09-29T15:43:00.066Z,32.90
2018-09-29T15:45:28.350Z,32.60
2018-09-29T15:47:56.656Z,32.20
2018-09-29T15:50:24.951Z,31.80
2018-09-29T15:52:53.298Z,31.40
2018-09-29T15:55:21.658Z,31.10
2018-09-29T15:57:50.090Z,30.70
2018-09-29T16:00:18.422Z,30.40
2018-09-29T16:02:46.699Z,30.10
2018-09-29T16:05:15.028Z,29.70
2018-09-29T16:07:43.351Z,29.40
2018-09-29T16:10:11.942Z,29.20
2018-09-29T16:12:40.232Z,28.80
2018-09-29T16:15:08.626Z,28.60
2018-09-29T16:17:37.064Z,28.40
2018-09-29T16:20:05.591Z,28.20
2018-09-29T16:22:34.013Z,27.90
2018-09-29T16:25:02.444Z,27.80
2018-09-29T16:27:30.818Z,27.60
2018-09-29T16:29:59.313Z,27.50
2018-09-29T16:32:27.717Z,27.30
2018-09-29T16:34:56.201Z,27.10
2018-09-29T16:37:24.556Z,27.00
2018-09-29T16:39:52.987Z,26.80
2018-09-29T16:42:21.451Z,26.70
2018-09-29T16:44:49.832Z,26.50
2018-09-29T16:47:18.245Z,26.40
2018-09-29T16:49:46.608Z,26.20
2018-09-29T16:52:15.123Z,26.10
2018-09-29T16:54:43.595Z,26.00
2018-09-29T16:57:12.123Z,25.90
2018-09-29T16:59:40.432Z,25.80
2018-09-29T17:02:08.801Z,25.60
2018-09-29T17:04:37.409Z,25.60
2018-09-29T17:07:05.787Z,25.40
2018-09-29T17:09:34.244Z,25.30
2018-09-29T17:12:02.726Z,25.20
2018-09-29T17:14:31.344Z,25.10
2018-09-29T17:16:59.703Z,25.00
2018-09-29T17:19:28.082Z,24.90
2018-09-29T17:21:56.713Z,24.80
2018-09-29T17:24:25.287Z,24.70
2018-09-29T17:26:53.651Z,24.60
2018-09-29T17:29:22.051Z,24.60
2018-09-29T17:31:50.478Z,24.50
2018-09-29T17:34:19.106Z,24.40
2018-09-29T17:36:47.584Z,24.30
2018-09-29T17:39:15.956Z,24.20
2018-09-29T17:41:44.292Z,24.20
2018-09-29T17:44:12.870Z,24.20
2018-09-29T17:46:41.339Z,24.10
2018-09-29T17:49:09.669Z,24.00
2018-09-29T17:51:38.092Z,24.00
2018-09-29T17:54:06.504Z,23.90
2018-09-29T17:56:35.051Z,23.90
2018-09-29T17:59:03.491Z,23.90
2018-09-29T18:01:32.115Z,23.90
2018-09-29T18:04:00.544Z,23.80
2018-09-29T18:06:29.183Z,23.80
2018-09-29T18:08:57.544Z,23.70
2018-09-29T18:11:26.023Z,23.60
2018-09-29T18:13:54.367Z,23.60
2018-09-29T18:16:22.766Z,23.50
2018-09-29T18:18:51.117Z,23.50
2018-09-29T18:21:19.553Z,23.40
2018-09-29T18:23:48.020Z,23.40
2018-09-29T18:26:16.487Z,23.30
2018-09-29T18:28:44.846Z,23.20
2018-09-29T18:31:13.175Z,23.20
2018-09-29T18:33:41.606Z,23.10
2018-09-29T18:36:10.102Z,23.00
2018-09-29T18:38:38.634Z,23.00
2018-09-29T18:41:07.028Z,22.80
2018-09-29T18:43:35.351Z,22.80
2018-09-29T18:46:03.736Z,22.80
2018-09-29T18:48:32.465Z,22.80
2018-09-29T18:51:01.284Z,22.70
2018-09-29T18:53:29.743Z,22.60
2018-09-29T18:55:58.104Z,22.50
2018-09-29T18:58:26.817Z,22.50
2018-09-29T19:00:55.187Z,22.50
2018-09-29T19:03:23.557Z,22.40
2018-09-29T19:05:51.959Z,22.40
2018-09-29T19:08:20.258Z,22.40
2018-09-29T19:10:48.783Z,22.40
2018-09-29T19:13:17.291Z,22.30
2018-09-29T19:15:45.696Z,22.30
2018-09-29T19:18:14.107Z,22.30
2018-09-29T19:20:45.507Z,22.30
2018-09-29T19:23:13.890Z,22.20
2018-09-29T19:25:42.355Z,22.20
2018-09-29T19:28:10.750Z,22.20
2018-09-29T19:30:39.149Z,22.10
2018-09-29T19:33:07.555Z,22.10
2018-09-29T19:35:35.937Z,22.00
2018-09-29T19:38:04.551Z,22.00
2018-09-29T19:40:32.923Z,22.00
2018-09-29T19:43:01.668Z,21.90
2018-09-29T19:45:30.486Z,21.90
2018-09-29T19:47:58.884Z,21.90
2018-09-29T19:50:27.286Z,21.80
2018-09-29T19:52:55.772Z,21.80
2018-09-29T19:55:24.188Z,21.70
2018-09-29T19:57:52.874Z,21.70
2018-09-29T20:00:21.249Z,21.70
2018-09-29T20:02:49.678Z,21.70
2018-09-29T20:05:18.312Z,21.70
2018-09-29T20:07:46.874Z,21.70
2018-09-29T20:10:15.391Z,21.60
2018-09-29T20:12:43.755Z,21.60
2018-09-29T20:15:12.105Z,21.50
2018-09-29T20:17:40.486Z,21.40
2018-09-29T20:20:08.916Z,21.40
2018-09-29T20:22:37.271Z,21.30
2018-09-29T20:25:05.749Z,21.30
2018-09-29T20:27:34.068Z,21.30
2018-09-29T20:30:02.386Z,21.20
2018-09-29T20:32:30.866Z,21.20
2018-09-29T20:34:59.409Z,21.10
2018-09-29T20:37:27.807Z,21.10
2018-09-29T20:39:56.269Z,21.00
2018-09-29T20:42:24.669Z,21.00
2018-09-29T20:44:52.983Z,21.00
2018-09-29T20:47:21.487Z,20.90
2018-09-29T20:49:49.829Z,20.90
2018-09-29T20:52:18.163Z,20.90
2018-09-29T20:54:46.483Z,21.00
2018-09-29T20:57:14.782Z,20.90
2018-09-29T20:59:44.124Z,20.90
2018-09-29T21:02:12.571Z,20.90
2018-09-29T21:04:41.018Z,20.90
2018-09-29T21:07:09.353Z,20.90
2018-09-29T21:09:37.728Z,20.90
2018-09-29T21:12:06.015Z,20.90
2018-09-29T21:14:34.482Z,20.90
2018-09-29T21:17:02.915Z,20.80
2018-09-29T21:19:31.297Z,20.80
2018-09-29T21:21:59.770Z,20.80
2018-09-29T21:24:28.349Z,20.80
2018-09-29T21:26:56.661Z,20.80
2018-09-29T21:29:25.175Z,20.70
2018-09-29T21:31:53.552Z,20.70
2018-09-29T21:34:22.191Z,20.70
2018-09-29T21:36:50.899Z,20.60
2018-09-29T21:39:19.744Z,20.60
2018-09-29T21:41:48.154Z,20.60
2018-09-29T21:44:16.547Z,20.60
2018-09-29T21:46:44.905Z,20.60
2018-09-29T21:49:13.341Z,20.70
2018-09-29T21:51:41.769Z,20.80
2018-09-29T21:54:10.335Z,20.80
2018-09-29T21:56:38.829Z,20.80
2018-09-29T21:59:07.216Z,20.80
2018-09-29T22:01:35.569Z,20.80
2018-09-29T22:04:04.191Z,20.80
2018-09-29T22:06:32.592Z,20.70
2018-09-29T22:09:01.162Z,20.60
2018-09-29T22:11:29.664Z,20.60
2018-09-29T22:13:58.387Z,20.50
2018-09-29T22:16:26.805Z,20.50
2018-09-29T22:18:55.243Z,20.50
2018-09-29T22:21:23.622Z,20.40
2018-09-29T22:23:52.435Z,20.50
2018-09-29T22:26:20.799Z,20.40
2018-09-29T22:28:49.124Z,20.40
2018-09-29T22:31:17.550Z,20.40
2018-09-29T22:33:45.836Z,20.40
2018-09-29T22:36:14.161Z,20.40
2018-09-29T22:38:42.481Z,20.40
2018-09-29T22:41:10.875Z,20.50
2018-09-29T22:43:39.412Z,20.50
2018-09-29T22:46:07.789Z,20.50
2018-09-29T22:48:36.075Z,20.50
2018-09-29T22:51:04.500Z,20.60
2018-09-29T22:53:32.947Z,20.60
2018-09-29T22:56:01.351Z,20.60
2018-09-29T22:58:29.731Z,20.60
2018-09-29T23:00:58.339Z,20.60
2018-09-29T23:03:26.947Z,20.60
2018-09-29T23:05:55.708Z,20.60
2018-09-29T23:08:24.774Z,20.70
2018-09-29T23:10:53.534Z,20.70
2018-09-29T23:13:22.075Z,20.70
2018-09-29T23:15:50.501Z,20.80
2018-09-29T23:18:18.918Z,20.80
2018-09-29T23:20:47.294Z,20.80
2018-09-29T23:23:15.889Z,20.80
2018-09-29T23:25:44.262Z,20.80
2018-09-29T23:28:12.635Z,20.80
2018-09-29T23:30:41.065Z,20.70
2018-09-29T23:33:09.369Z,20.70
2018-09-29T23:35:37.803Z,20.70
2018-09-29T23:38:06.292Z,20.70
2018-09-29T23:40:34.706Z,20.60
2018-09-29T23:43:03.055Z,20.50
2018-09-29T23:45:31.548Z,20.50
2018-09-29T23:48:00.397Z,20.50
2018-09-29T23:50:29.354Z,20.50
2018-09-29T23:52:57.815Z,20.40
2018-09-29T23:55:26.267Z,20.40
2018-09-29T23:57:54.716Z,20.30
